createdAt,value
2022-09-10T00:00:44.439Z,74.67
2022-09-10T00:03:11.791Z,76.13
2022-09-10T00:05:44.126Z,76.35
2022-09-10T00:08:11.418Z,77.33
2022-09-10T00:10:47.971Z,78.50
2022-09-10T00:13:17.313Z,77.39
2022-09-10T00:15:50.172Z,77.33
2022-09-10T00:18:19.501Z,76.27
2022-09-10T00:20:54.818Z,75.58
2022-09-10T00:23:25.867Z,77.36
2022-09-10T00:25:55.162Z,77.79
2022-09-10T00:28:24.269Z,78.28
2022-09-10T00:30:54.563Z,78.18
2022-09-10T00:33:22.986Z,77.98
2022-09-10T00:35:51.261Z,78.17
2022-09-10T00:38:18.713Z,77.09
2022-09-10T00:40:46.876Z,77.06
2022-09-10T00:43:16.860Z,77.09
2022-09-10T00:45:44.755Z,77.17
2022-09-10T00:48:16.692Z,78.20
2022-09-10T00:50:46.518Z,78.80
2022-09-10T00:53:16.448Z,78.26
2022-09-10T00:55:45.533Z,77.67
2022-09-10T00:58:14.013Z,77.84
2022-09-10T01:00:42.027Z,77.51
2022-09-10T01:03:11.313Z,77.06
2022-09-10T01:05:42.496Z,77.76
2022-09-10T01:08:15.206Z,77.21
2022-09-10T01:11:16.515Z,77.06
2022-09-10T01:14:15.685Z,77.81
2022-09-10T01:16:53.597Z,79.80
2022-09-10T01:19:32.810Z,78.03
2022-09-10T01:22:22.472Z,78.34
2022-09-10T01:24:54.517Z,77.72
2022-09-10T01:27:30.954Z,79.05
2022-09-10T01:30:04.438Z,77.54
2022-09-10T01:32:39.905Z,78.36
2022-09-10T01:35:22.302Z,77.70
2022-09-10T01:37:54.594Z,78.43
2022-09-10T01:40:29.703Z,77.37
2022-09-10T01:43:07.378Z,77.52
2022-09-10T01:45:58.022Z,77.35
2022-09-10T01:48:56.024Z,77.65
2022-09-10T01:51:26.380Z,77.53
2022-09-10T01:54:26.305Z,75.08
2022-09-10T01:57:05.124Z,75.25
2022-09-10T01:59:46.965Z,76.53
2022-09-10T02:02:37.531Z,76.76
2022-09-10T02:05:06.252Z,77.83
2022-09-10T02:07:35.467Z,76.53
2022-09-10T02:10:07.358Z,77.56
2022-09-10T02:12:40.070Z,78.05
2022-09-10T02:15:34.813Z,78.43
2022-09-10T02:18:22.403Z,78.40
2022-09-10T02:20:51.705Z,78.93
2022-09-10T02:23:46.517Z,77.99
2022-09-10T02:26:14.930Z,77.00
2022-09-10T02:28:45.537Z,78.68
2022-09-10T02:31:13.326Z,77.92
2022-09-10T02:33:41.289Z,78.30
2022-09-10T02:36:08.644Z,78.16
2022-09-10T02:38:35.944Z,78.18
2022-09-10T02:41:03.480Z,77.77
2022-09-10T02:43:31.854Z,77.48
2022-09-10T02:46:02.370Z,78.16
2022-09-10T02:48:31.069Z,78.06
2022-09-10T02:50:58.878Z,78.17
2022-09-10T02:53:29.325Z,78.73
2022-09-10T02:55:58.484Z,78.35
2022-09-10T02:58:25.807Z,77.86
2022-09-10T03:00:53.432Z,78.00
2022-09-10T03:03:20.703Z,77.10
2022-09-10T03:05:48.366Z,79.63
2022-09-10T03:08:16.036Z,78.61
2022-09-10T03:10:46.014Z,79.43
2022-09-10T03:13:13.150Z,78.76
2022-09-10T03:15:42.459Z,77.94
2022-09-10T03:18:10.048Z,77.72
2022-09-10T03:20:41.867Z,78.42
2022-09-10T03:23:11.327Z,75.93
2022-09-10T03:25:38.765Z,77.73
2022-09-10T03:28:08.196Z,78.03
2022-09-10T03:30:36.580Z,75.70
2022-09-10T03:33:04.735Z,76.80
2022-09-10T03:35:32.175Z,77.24
2022-09-10T03:38:02.384Z,76.97
2022-09-10T03:40:29.700Z,76.57
2022-09-10T03:42:57.109Z,74.78
2022-09-10T03:45:24.467Z,76.24
2022-09-10T03:47:51.991Z,77.59
2022-09-10T03:50:20.402Z,76.48
2022-09-10T03:52:47.647Z,76.41
2022-09-10T03:55:17.912Z,76.14
2022-09-10T03:57:46.032Z,76.26
2022-09-10T04:00:15.411Z,75.11
2022-09-10T04:02:44.102Z,76.71
2022-09-10T04:05:12.970Z,76.68
2022-09-10T04:07:40.486Z,76.46
2022-09-10T04:10:08.193Z,76.04
2022-09-10T04:12:36.365Z,76.69
2022-09-10T04:15:06.406Z,76.63
2022-09-10T04:17:34.871Z,74.83
2022-09-10T04:20:02.997Z,75.53
2022-09-10T04:22:35.817Z,75.07
2022-09-10T04:25:03.808Z,76.53
2022-09-10T04:27:31.739Z,77.00
2022-09-10T04:29:58.994Z,77.35
2022-09-10T04:32:26.263Z,77.64
2022-09-10T04:34:54.321Z,76.59
2022-09-10T04:37:21.932Z,77.21
2022-09-10T04:39:49.421Z,77.65
2022-09-10T04:42:17.933Z,77.11
2022-09-10T04:44:49.484Z,78.20
2022-09-10T04:47:17.321Z,77.34
2022-09-10T04:49:44.647Z,76.78
2022-09-10T04:52:13.334Z,75.37
2022-09-10T04:54:40.782Z,76.75
2022-09-10T04:57:08.515Z,75.29
2022-09-10T04:59:36.567Z,77.23
2022-09-10T05:02:04.003Z,76.87
2022-09-10T05:04:31.229Z,76.23
2022-09-10T05:07:01.446Z,74.90
2022-09-10T05:09:31.364Z,76.51
2022-09-10T05:12:01.177Z,76.37
2022-09-10T05:14:29.490Z,76.53
2022-09-10T05:16:57.584Z,75.68
2022-09-10T05:19:25.268Z,76.39
2022-09-10T05:22:00.215Z,76.73
2022-09-10T05:24:27.430Z,77.13
2022-09-10T05:26:56.898Z,76.24
2022-09-10T05:29:24.359Z,75.47
2022-09-10T05:31:52.012Z,75.62
2022-09-10T05:34:20.482Z,76.61
2022-09-10T05:36:48.794Z,76.34
2022-09-10T05:39:16.469Z,76.95
2022-09-10T05:41:43.966Z,76.36
2022-09-10T05:44:11.302Z,76.19
2022-09-10T05:46:40.476Z,76.46
2022-09-10T05:49:13.447Z,76.45
2022-09-10T05:51:41.573Z,75.17
2022-09-10T05:54:09.606Z,75.98
2022-09-10T05:56:37.050Z,74.76
2022-09-10T05:59:04.431Z,74.71
2022-09-10T06:01:33.318Z,75.43
2022-09-10T06:04:03.032Z,76.42
2022-09-10T06:06:31.058Z,75.27
2022-09-10T06:09:04.475Z,74.85
2022-09-10T06:11:42.991Z,74.82
2022-09-10T06:14:10.983Z,76.05
2022-09-10T06:16:38.267Z,75.19
2022-09-10T06:19:08.364Z,76.81
2022-09-10T06:21:36.761Z,76.30
2022-09-10T06:24:04.730Z,76.59
2022-09-10T06:26:37.519Z,76.32
2022-09-10T06:29:10.065Z,76.64
2022-09-10T06:31:38.792Z,76.24
2022-09-10T06:34:07.514Z,75.36
2022-09-10T06:36:35.139Z,75.54
2022-09-10T06:39:03.652Z,75.81
2022-09-10T06:41:45.846Z,75.21
2022-09-10T06:44:31.649Z,75.27
2022-09-10T06:47:55.463Z,75.53
2022-09-10T06:50:00.452Z,74.24
2022-09-10T06:52:29.471Z,74.01
2022-09-10T06:55:02.131Z,73.96
2022-09-10T06:57:38.130Z,72.19
2022-09-10T07:00:06.054Z,73.47
2022-09-10T07:02:34.146Z,72.29
2022-09-10T07:05:01.581Z,71.92
2022-09-10T07:07:30.422Z,72.09
2022-09-10T07:09:58.338Z,72.79
2022-09-10T07:12:25.907Z,72.47
2022-09-10T07:14:53.396Z,71.88
2022-09-10T07:17:22.087Z,72.37
2022-09-10T07:19:49.371Z,71.66
2022-09-10T07:22:38.023Z,73.31
2022-09-10T07:25:08.709Z,73.73
2022-09-10T07:27:52.620Z,72.62
2022-09-10T07:30:22.254Z,71.73
2022-09-10T07:32:50.961Z,73.49
2022-09-10T07:35:23.073Z,72.98
2022-09-10T07:37:51.388Z,73.12
2022-09-10T07:40:20.278Z,72.44
2022-09-10T07:42:47.836Z,72.08
2022-09-10T07:45:16.170Z,71.70
2022-09-10T07:47:44.720Z,72.91
2022-09-10T07:50:13.102Z,71.54
2022-09-10T07:52:41.467Z,72.90
2022-09-10T07:55:10.036Z,72.09
2022-09-10T07:57:39.759Z,71.84
2022-09-10T08:00:14.930Z,71.78
2022-09-10T08:02:50.286Z,72.47
2022-09-10T08:05:20.423Z,70.69
2022-09-10T08:07:48.242Z,74.30
2022-09-10T08:10:15.835Z,72.91
2022-09-10T08:12:43.889Z,72.92
2022-09-10T08:15:12.831Z,74.73
2022-09-10T08:17:41.479Z,73.70
2022-09-10T08:20:10.218Z,73.71
2022-09-10T08:22:40.878Z,73.93
2022-09-10T08:25:08.393Z,72.71
2022-09-10T08:27:37.299Z,73.63
2022-09-10T08:30:07.296Z,73.17
2022-09-10T08:32:35.982Z,71.86
2022-09-10T08:35:05.015Z,71.77
2022-09-10T08:37:33.888Z,71.69
2022-09-10T08:40:03.260Z,71.70
2022-09-10T08:42:37.006Z,70.96
2022-09-10T08:45:07.225Z,70.22
2022-09-10T08:47:36.147Z,72.31
2022-09-10T08:50:15.673Z,73.23
2022-09-10T08:52:44.392Z,72.14
2022-09-10T08:55:19.845Z,70.60
2022-09-10T08:57:59.349Z,69.08
2022-09-10T09:00:33.181Z,67.93
2022-09-10T09:03:13.053Z,68.10
2022-09-10T09:05:46.821Z,68.66
2022-09-10T09:08:27.619Z,69.09
2022-09-10T09:11:11.196Z,68.87
2022-09-10T09:14:03.193Z,69.91
2022-09-10T09:17:11.124Z,70.82
2022-09-10T09:19:54.298Z,71.40
2022-09-10T09:22:42.049Z,71.27
2022-09-10T09:25:27.225Z,71.71
2022-09-10T09:27:58.683Z,72.45
2022-09-10T09:30:35.602Z,73.82
2022-09-10T09:33:13.002Z,73.78
2022-09-10T09:35:53.109Z,73.57
2022-09-10T09:38:28.677Z,73.63
2022-09-10T09:41:00.826Z,74.86
2022-09-10T09:43:31.407Z,75.67
2022-09-10T09:46:00.173Z,76.09
2022-09-10T09:48:38.317Z,76.85
2022-09-10T09:51:08.783Z,76.67
2022-09-10T09:53:36.190Z,76.25
2022-09-10T09:56:18.273Z,76.39
2022-09-10T09:58:49.533Z,76.88
2022-09-10T10:01:19.490Z,77.39
2022-09-10T10:03:51.645Z,77.94
2022-09-10T10:06:24.779Z,78.12
2022-09-10T10:09:00.491Z,78.10
2022-09-10T10:11:50.273Z,76.63
2022-09-10T10:14:20.561Z,76.64
2022-09-10T10:16:52.309Z,76.35
2022-09-10T10:19:35.804Z,77.40
2022-09-10T10:22:18.214Z,76.51
2022-09-10T10:24:47.483Z,77.05
2022-09-10T10:27:32.063Z,77.23
2022-09-10T10:30:04.382Z,77.40
2022-09-10T10:32:44.791Z,78.51
2022-09-10T10:35:12.047Z,79.08
2022-09-10T10:38:04.033Z,78.66
2022-09-10T10:40:38.607Z,80.17
2022-09-10T10:43:26.400Z,80.59
2022-09-10T10:46:01.593Z,81.64
2022-09-10T10:49:06.110Z,82.93
2022-09-10T10:51:53.912Z,82.86
2022-09-10T10:54:43.713Z,81.83
2022-09-10T10:57:25.511Z,83.73
2022-09-10T11:00:07.674Z,83.45
2022-09-10T11:02:43.602Z,82.77
2022-09-10T11:05:18.825Z,82.43
2022-09-10T11:07:47.429Z,80.55
2022-09-10T11:10:27.246Z,81.66
2022-09-10T11:13:06.947Z,81.23
2022-09-10T11:15:37.296Z,81.99
2022-09-10T11:18:13.474Z,81.46
2022-09-10T11:20:59.264Z,80.55
2022-09-10T11:23:29.784Z,80.81
2022-09-10T11:26:19.503Z,81.33
2022-09-10T11:28:55.700Z,81.67
2022-09-10T11:32:10.446Z,79.84
2022-09-10T11:35:04.437Z,78.29
2022-09-10T11:38:08.994Z,77.55
2022-09-10T11:40:42.100Z,77.17
2022-09-10T11:43:43.451Z,77.01
2022-09-10T11:46:16.826Z,79.01
2022-09-10T11:48:51.096Z,77.79
2022-09-10T11:51:30.515Z,76.60
2022-09-10T11:53:58.138Z,76.19
2022-09-10T11:56:49.917Z,77.47
2022-09-10T11:59:27.084Z,79.42
2022-09-10T12:02:03.695Z,78.98
2022-09-10T12:04:47.704Z,77.59
2022-09-10T12:07:42.461Z,76.45
2022-09-10T12:10:32.869Z,74.91
2022-09-10T12:13:00.710Z,71.62
2022-09-10T12:15:34.493Z,71.59
2022-09-10T12:18:04.312Z,72.61
2022-09-10T12:20:34.745Z,73.44
2022-09-10T12:23:02.251Z,72.96
2022-09-10T12:25:34.338Z,69.73
2022-09-10T12:28:06.418Z,70.40
2022-09-10T12:30:33.677Z,73.16
2022-09-10T12:33:12.925Z,70.24
2022-09-10T12:35:48.343Z,69.45
2022-09-10T12:38:55.099Z,69.64
2022-09-10T12:41:25.198Z,68.41
2022-09-10T12:43:56.068Z,67.75
2022-09-10T12:46:25.425Z,67.71
2022-09-10T12:48:56.110Z,66.63
2022-09-10T12:51:46.229Z,65.59
2022-09-10T12:54:22.529Z,64.44
2022-09-10T12:57:17.456Z,64.21
2022-09-10T13:00:12.405Z,63.94
2022-09-10T13:02:48.008Z,66.14
2022-09-10T13:05:19.329Z,67.82
2022-09-10T13:07:49.202Z,68.46
2022-09-10T13:10:25.324Z,70.39
2022-09-10T13:12:55.710Z,68.83
2022-09-10T13:15:25.742Z,68.22
2022-09-10T13:17:53.912Z,65.95
2022-09-10T13:20:21.032Z,64.44
2022-09-10T13:23:15.614Z,64.38
2022-09-10T13:25:44.838Z,64.62
2022-09-10T13:28:30.475Z,62.36
2022-09-10T13:31:11.277Z,63.33
2022-09-10T13:33:51.213Z,63.43
2022-09-10T13:36:49.392Z,64.42
2022-09-10T13:39:23.700Z,64.08
2022-09-10T13:42:15.076Z,64.81
2022-09-10T13:45:20.918Z,66.00
2022-09-10T13:47:53.621Z,67.63
2022-09-10T13:50:28.752Z,66.60
2022-09-10T13:52:58.807Z,67.70
2022-09-10T13:55:28.555Z,68.99
2022-09-10T13:58:01.431Z,70.09
2022-09-10T14:00:40.982Z,72.40
2022-09-10T14:03:16.637Z,71.64
2022-09-10T14:05:48.151Z,74.02
2022-09-10T14:08:31.397Z,75.79
2022-09-10T14:11:07.700Z,78.48
2022-09-10T14:13:43.624Z,79.52
2022-09-10T14:16:12.799Z,83.88
2022-09-10T14:18:48.368Z,88.15
2022-09-10T14:21:17.968Z,89.53
2022-09-10T14:23:46.960Z,90.36
2022-09-10T14:26:19.877Z,91.53
2022-09-10T14:28:56.291Z,92.96
2022-09-10T14:31:30.078Z,92.23
2022-09-10T14:33:59.434Z,92.87
2022-09-10T14:36:31.552Z,92.94
2022-09-10T14:39:22.704Z,95.57
2022-09-10T14:42:21.797Z,93.17
2022-09-10T14:44:49.778Z,90.48
2022-09-10T14:47:29.959Z,92.97
2022-09-10T14:50:27.172Z,90.21
2022-09-10T14:52:55.410Z,89.70
2022-09-10T14:55:25.264Z,88.06
2022-09-10T14:57:54.175Z,87.47
2022-09-10T15:00:22.427Z,88.25
2022-09-10T15:02:55.903Z,88.67
2022-09-10T15:05:24.687Z,89.47
2022-09-10T15:07:51.857Z,89.58
2022-09-10T15:10:19.171Z,87.49
2022-09-10T15:12:49.801Z,87.90
2022-09-10T15:15:17.782Z,85.75
2022-09-10T15:17:45.264Z,86.22
2022-09-10T15:20:14.614Z,85.83
2022-09-10T15:22:41.829Z,84.89
2022-09-10T15:25:26.056Z,83.69
2022-09-10T15:27:53.374Z,83.41
2022-09-10T15:30:20.924Z,83.89
2022-09-10T15:32:48.204Z,82.66
2022-09-10T15:35:15.572Z,80.99
2022-09-10T15:37:42.749Z,79.28
2022-09-10T15:40:11.017Z,81.38
2022-09-10T15:42:38.293Z,81.57
2022-09-10T15:45:05.883Z,81.54
2022-09-10T15:47:33.606Z,80.44
2022-09-10T15:50:00.996Z,82.08
2022-09-10T15:52:28.200Z,84.03
2022-09-10T15:54:55.426Z,83.96
2022-09-10T15:57:22.755Z,82.95
2022-09-10T15:59:50.207Z,83.81
2022-09-10T16:02:18.423Z,84.36
2022-09-10T16:04:45.622Z,83.97
2022-09-10T16:07:14.437Z,85.49
2022-09-10T16:09:43.489Z,85.02
2022-09-10T16:12:10.859Z,86.66
2022-09-10T16:14:38.271Z,84.35
2022-09-10T16:17:10.570Z,84.47
2022-09-10T16:19:38.678Z,84.25
2022-09-10T16:22:06.133Z,83.00
2022-09-10T16:24:33.489Z,81.56
2022-09-10T16:27:00.768Z,82.66
2022-09-10T16:29:32.398Z,84.45
2022-09-10T16:32:00.262Z,85.90
2022-09-10T16:34:27.513Z,86.94
2022-09-10T16:36:54.907Z,85.77
2022-09-10T16:39:22.312Z,86.64
2022-09-10T16:41:50.738Z,88.60
2022-09-10T16:44:18.558Z,90.49
2022-09-10T16:46:47.183Z,93.50
2022-09-10T16:49:18.144Z,90.72
2022-09-10T16:51:46.775Z,91.48
2022-09-10T16:54:14.953Z,89.95
2022-09-10T16:56:44.121Z,88.00
2022-09-10T16:59:31.726Z,87.12
2022-09-10T17:02:00.573Z,86.49
2022-09-10T17:04:29.128Z,84.63
2022-09-10T17:06:57.648Z,84.55
2022-09-10T17:09:25.232Z,84.13
2022-09-10T17:11:56.120Z,83.35
2022-09-10T17:14:24.409Z,84.46
2022-09-10T17:16:52.221Z,83.70
2022-09-10T17:19:23.440Z,83.04
2022-09-10T17:21:53.292Z,82.26
2022-09-10T17:24:22.451Z,82.06
2022-09-10T17:26:50.441Z,81.65
2022-09-10T17:29:20.282Z,81.74
2022-09-10T17:31:47.605Z,81.99
2022-09-10T17:34:16.280Z,82.83
2022-09-10T17:36:45.707Z,82.97
2022-09-10T17:39:13.686Z,82.85
2022-09-10T17:41:41.479Z,83.82
2022-09-10T17:44:09.835Z,84.67
2022-09-10T17:46:37.946Z,84.39
2022-09-10T17:49:05.538Z,83.38
2022-09-10T17:51:34.634Z,82.97
2022-09-10T17:54:04.845Z,84.11
2022-09-10T17:56:31.990Z,85.17
2022-09-10T17:59:01.627Z,85.52
2022-09-10T18:01:34.240Z,84.34
2022-09-10T18:04:01.784Z,83.91
2022-09-10T18:06:29.236Z,84.35
2022-09-10T18:09:03.550Z,84.16
2022-09-10T18:11:33.003Z,83.10
2022-09-10T18:14:01.233Z,82.17
2022-09-10T18:16:31.176Z,81.66
2022-09-10T18:19:04.370Z,81.31
2022-09-10T18:21:34.051Z,81.26
2022-09-10T18:24:07.973Z,81.13
2022-09-10T18:26:39.403Z,80.91
2022-09-10T18:29:10.170Z,81.57
2022-09-10T18:31:41.273Z,81.45
2022-09-10T18:34:12.443Z,81.26
2022-09-10T18:36:39.814Z,81.01
2022-09-10T18:39:10.697Z,81.01
2022-09-10T18:41:39.891Z,81.88
2022-09-10T18:44:10.891Z,82.11
2022-09-10T18:46:38.368Z,81.87
2022-09-10T18:49:05.713Z,81.84
2022-09-10T18:51:33.070Z,81.65
2022-09-10T18:54:01.127Z,81.38
2022-09-10T18:56:30.587Z,81.11
2022-09-10T18:59:06.990Z,81.46
2022-09-10T19:01:35.882Z,80.84
2022-09-10T19:04:05.778Z,81.10
2022-09-10T19:06:35.268Z,80.71
2022-09-10T19:09:05.751Z,81.46
2022-09-10T19:11:38.147Z,82.41
2022-09-10T19:14:08.797Z,82.48
2022-09-10T19:16:36.115Z,82.23
2022-09-10T19:19:06.004Z,82.23
2022-09-10T19:21:35.335Z,82.18
2022-09-10T19:24:03.687Z,81.07
2022-09-10T19:26:34.768Z,81.75
2022-09-10T19:29:02.810Z,82.73
2022-09-10T19:31:33.944Z,82.40
2022-09-10T19:34:04.150Z,81.29
2022-09-10T19:36:33.416Z,81.60
2022-09-10T19:39:01.792Z,81.34
2022-09-10T19:41:29.032Z,82.49
2022-09-10T19:43:56.675Z,83.48
2022-09-10T19:46:28.154Z,83.77
2022-09-10T19:48:59.384Z,82.69
2022-09-10T19:51:28.695Z,82.12
2022-09-10T19:53:56.198Z,82.91
2022-09-10T19:56:26.033Z,83.34
2022-09-10T19:58:55.662Z,82.54
2022-09-10T20:01:25.736Z,83.14
2022-09-10T20:03:54.032Z,82.83
2022-09-10T20:06:23.861Z,82.71
2022-09-10T20:08:52.373Z,83.04
2022-09-10T20:11:21.869Z,83.43
2022-09-10T20:13:49.561Z,82.66
2022-09-10T20:16:17.034Z,83.06
2022-09-10T20:18:45.592Z,83.00
2022-09-10T20:21:24.972Z,83.44
2022-09-10T20:23:55.574Z,83.12
2022-09-10T20:26:23.943Z,82.45
2022-09-10T20:28:53.622Z,82.54
2022-09-10T20:31:22.196Z,83.43
2022-09-10T20:33:54.626Z,83.47
2022-09-10T20:36:23.005Z,82.45
2022-09-10T20:38:51.777Z,81.91
2022-09-10T20:41:19.305Z,81.64
2022-09-10T20:43:53.445Z,82.02
2022-09-10T20:46:22.379Z,82.45
2022-09-10T20:48:52.222Z,82.22
2022-09-10T20:51:20.579Z,82.29
2022-09-10T20:53:48.524Z,82.28
2022-09-10T20:56:18.519Z,82.51
2022-09-10T20:58:46.662Z,82.96
2022-09-10T21:01:23.191Z,82.98
2022-09-10T21:03:54.780Z,81.74
2022-09-10T21:06:25.173Z,81.20
2022-09-10T21:08:52.622Z,82.52
2022-09-10T21:11:21.029Z,82.23
2022-09-10T21:13:55.965Z,83.35
2022-09-10T21:16:28.534Z,81.80
2022-09-10T21:19:00.944Z,81.85
2022-09-10T21:21:30.257Z,82.15
2022-09-10T21:23:59.341Z,83.16
2022-09-10T21:26:32.620Z,83.00
2022-09-10T21:29:02.344Z,83.62
2022-09-10T21:31:30.402Z,84.46
2022-09-10T21:34:02.655Z,85.41
2022-09-10T21:36:32.084Z,84.98
2022-09-10T21:39:01.207Z,84.00
2022-09-10T21:41:35.535Z,85.22
2022-09-10T21:44:05.993Z,84.71
2022-09-10T21:46:34.298Z,85.07
2022-09-10T21:49:02.417Z,84.62
2022-09-10T21:51:29.790Z,86.24
2022-09-10T21:53:57.861Z,85.32
2022-09-10T21:56:27.526Z,85.97
2022-09-10T21:58:56.604Z,85.84
2022-09-10T22:01:26.426Z,85.75
2022-09-10T22:03:56.372Z,85.42
2022-09-10T22:06:25.955Z,85.55
2022-09-10T22:08:58.417Z,85.68
2022-09-10T22:11:32.091Z,86.36
2022-09-10T22:14:01.612Z,86.09
2022-09-10T22:16:31.122Z,85.31
2022-09-10T22:19:01.198Z,86.28
2022-09-10T22:21:29.016Z,86.04
2022-09-10T22:23:56.254Z,87.06
2022-09-10T22:26:25.484Z,86.01
2022-09-10T22:28:54.290Z,85.01
2022-09-10T22:31:27.290Z,86.42
2022-09-10T22:33:57.106Z,86.10
2022-09-10T22:36:28.701Z,85.15
2022-09-10T22:38:59.301Z,85.25
2022-09-10T22:41:27.119Z,87.10
2022-09-10T22:43:54.852Z,87.19
2022-09-10T22:46:23.691Z,87.30
2022-09-10T22:48:51.129Z,86.92
2022-09-10T22:51:23.308Z,88.00
2022-09-10T22:53:52.543Z,90.81
2022-09-10T22:56:22.156Z,90.32
2022-09-10T22:58:52.833Z,89.02
2022-09-10T23:01:23.012Z,89.89
2022-09-10T23:03:50.644Z,88.84
2022-09-10T23:06:22.482Z,88.10
2022-09-10T23:08:54.669Z,88.18
2022-09-10T23:11:27.371Z,90.80
2022-09-10T23:14:01.404Z,90.38
2022-09-10T23:16:31.859Z,91.31
2022-09-10T23:19:01.324Z,90.71
2022-09-10T23:21:30.221Z,89.68
2022-09-10T23:24:00.439Z,88.92
2022-09-10T23:26:27.800Z,89.41
2022-09-10T23:28:55.586Z,89.70
2022-09-10T23:31:27.457Z,89.32
2022-09-10T23:33:59.899Z,89.54
2022-09-10T23:36:29.891Z,91.38
2022-09-10T23:39:01.424Z,90.34
2022-09-10T23:41:29.867Z,89.01
2022-09-10T23:43:57.401Z,89.66
2022-09-10T23:46:25.383Z,89.57
2022-09-10T23:48:52.665Z,90.62
2022-09-10T23:51:20.833Z,90.27
2022-09-10T23:53:48.753Z,89.94
2022-09-10T23:56:19.005Z,88.86
2022-09-10T23:58:47.690Z,88.99
